Time;durP1;ratioP1;P1;durP2;ratioP2;P2;SDS_P1;SDS_P2;PMS_P1;PMS_P2;Temp;Humidity;BMP_temperature;BMP_pressure;BME280_temperature;BME280_humidity;BME280_pressure;Samples;Min_cycle;Max_cycle;Signal;HPM_P1;HPM_P2
2021/11/18 00:00:19;;;;;;;100.22;48.75;;;;;;;3.97;100.00;98174.22;5042466;28;20028;-88
2021/11/18 00:02:45;;;;;;;81.05;39.70;;;;;;;3.77;100.00;98151.75;5042824;28;20553;-87
2021/11/18 00:05:15;;;;;;;67.88;33.97;;;;;;;3.82;100.00;98176.31;5043629;28;20056;-86
2021/11/18 00:07:49;;;;;;;63.38;31.95;;;;;;;3.69;100.00;98168.75;5043379;28;20119;-88
2021/11/18 00:10:18;;;;;;;69.72;34.55;;;;;;;3.71;100.00;98175.72;5044768;28;20040;-88
2021/11/18 00:12:47;;;;;;;68.00;35.15;;;;;;;3.75;100.00;98185.31;5045074;28;20024;-88
2021/11/18 00:15:14;;;;;;;80.18;37.35;;;;;;;3.61;100.00;98160.97;5044935;28;20044;-88
2021/11/18 00:17:40;;;;;;;76.43;37.15;;;;;;;3.58;100.00;98157.53;5048611;28;20498;-88
2021/11/18 00:20:09;;;;;;;84.32;37.03;;;;;;;3.74;100.00;98180.94;5046749;28;20028;-88
2021/11/18 00:22:35;;;;;;;78.38;36.35;;;;;;;3.67;100.00;98176.69;5047415;28;20032;-88
2021/11/18 00:25:01;;;;;;;80.43;36.22;;;;;;;3.48;100.00;98148.94;5047572;28;20082;-89
2021/11/18 00:27:27;;;;;;;81.20;37.55;;;;;;;3.60;100.00;98167.16;5047681;28;20062;-88
2021/11/18 00:29:53;;;;;;;85.03;38.40;;;;;;;3.61;100.00;98155.69;5048687;28;20115;-89
2021/11/18 00:32:19;;;;;;;75.43;36.30;;;;;;;3.65;100.00;98149.44;5047447;28;20071;-88
2021/11/18 00:34:45;;;;;;;78.57;36.85;;;;;;;3.78;100.00;98161.41;5045337;28;20028;-88
2021/11/18 00:37:11;;;;;;;78.70;38.80;;;;;;;3.58;100.00;98133.72;5046059;28;20547;-88
2021/11/18 00:39:36;;;;;;;80.05;36.25;;;;;;;3.54;100.00;98151.44;5045638;28;20032;-87
2021/11/18 00:42:02;;;;;;;86.85;35.70;;;;;;;3.40;100.00;98137.69;5045009;28;20107;-86
2021/11/18 00:44:28;;;;;;;83.43;38.25;;;;;;;3.30;100.00;98136.19;5046505;28;20029;-87
2021/11/18 00:46:54;;;;;;;83.28;38.42;;;;;;;3.34;100.00;98142.25;5045305;28;20070;-87
2021/11/18 00:49:21;;;;;;;78.75;38.33;;;;;;;3.32;100.00;98137.03;5044852;28;20035;-87
2021/11/18 00:51:48;;;;;;;86.55;36.90;;;;;;;3.42;100.00;98154.38;5044243;28;20035;-87
2021/11/18 00:54:15;;;;;;;89.78;38.75;;;;;;;3.42;100.00;98151.75;5045271;28;20025;-87
2021/11/18 00:56:41;;;;;;;80.03;37.25;;;;;;;3.31;100.00;98140.56;5045159;28;20028;-87
2021/11/18 00:59:07;;;;;;;82.05;36.50;;;;;;;3.31;100.00;98140.56;5044574;28;20024;-87
2021/11/18 01:01:41;;;;;;;81.10;38.95;;;;;;;3.28;100.00;98138.00;5044342;28;20039;-88
2021/11/18 01:04:08;;;;;;;82.97;40.65;;;;;;;3.33;100.00;98154.59;5045597;28;20039;-86
2021/11/18 01:06:34;;;;;;;94.85;44.75;;;;;;;3.32;100.00;98163.47;5053233;28;20037;-87
2021/11/18 01:09:00;;;;;;;105.00;48.15;;;;;;;3.26;100.00;98153.88;5045172;28;20025;-87
2021/11/18 01:11:28;;;;;;;107.15;50.20;;;;;;;3.18;100.00;98154.97;5045905;28;20438;-87
2021/11/18 01:13:54;;;;;;;120.30;53.30;;;;;;;3.17;100.00;98159.38;5061912;28;20483;-87
2021/11/18 01:16:28;;;;;;;119.53;54.88;;;;;;;3.23;100.00;98168.97;5045080;28;20027;-87
2021/11/18 01:18:54;;;;;;;105.75;50.95;;;;;;;3.19;100.00;98173.44;5044776;28;20024;-87
2021/11/18 01:21:20;;;;;;;109.63;50.10;;;;;;;3.06;100.00;98157.88;5044646;28;20051;-86
2021/11/18 01:23:47;;;;;;;94.25;44.03;;;;;;;2.97;100.00;98143.13;5062000;28;20025;-88
2021/11/18 01:26:15;;;;;;;79.22;39.40;;;;;;;3.08;100.00;98158.72;5043968;28;20115;-88
2021/11/18 01:28:41;;;;;;;87.63;40.22;;;;;;;3.11;100.00;98163.94;5043108;28;20028;-87
2021/11/18 01:31:07;;;;;;;81.00;38.85;;;;;;;3.12;100.00;98152.47;5045017;28;20109;-88
2021/11/18 01:33:33;;;;;;;82.22;38.95;;;;;;;3.24;100.00;98166.28;5043612;28;20044;-88
2021/11/18 01:35:59;;;;;;;79.15;37.35;;;;;;;3.27;100.00;98173.25;5044603;28;20024;-89
2021/11/18 01:38:26;;;;;;;83.50;36.95;;;;;;;3.36;100.00;98164.22;5043221;28;20419;-89
2021/11/18 01:40:55;;;;;;;81.50;37.03;;;;;;;3.33;100.00;98162.53;5042566;28;20033;-89
2021/11/18 01:43:27;;;;;;;75.68;35.53;;;;;;;3.34;100.00;98148.44;5044822;28;20031;-88
2021/11/18 01:45:53;;;;;;;76.35;34.53;;;;;;;3.50;100.00;98167.44;5044106;28;20487;-88
2021/11/18 01:48:19;;;;;;;77.75;35.75;;;;;;;3.48;100.00;98148.06;5060283;28;20028;-88
2021/11/18 01:50:48;;;;;;;79.65;34.33;;;;;;;3.66;100.00;98164.38;5044571;28;20577;-89
2021/11/18 01:53:17;;;;;;;71.07;35.03;;;;;;;3.56;100.00;98139.06;5045990;28;20480;-88
2021/11/18 01:55:44;;;;;;;79.60;35.75;;;;;;;3.61;100.00;98162.75;5045136;28;20523;-88
2021/11/18 01:58:10;;;;;;;76.53;37.75;;;;;;;3.48;100.00;98132.22;5044659;28;20039;-88
2021/11/18 02:00:44;;;;;;;79.97;37.05;;;;;;;3.64;100.00;98142.38;5046170;28;20089;-88
2021/11/18 02:03:10;;;;;;;76.15;34.83;;;;;;;3.74;100.00;98162.41;5045768;28;20016;-88
2021/11/18 02:05:38;;;;;;;69.57;33.75;;;;;;;3.68;100.00;98159.94;5045218;28;20031;-87
2021/11/18 02:08:10;;;;;;;76.15;35.08;;;;;;;3.60;100.00;98159.22;5043400;28;20469;-87
2021/11/18 02:10:40;;;;;;;82.05;37.20;;;;;;;3.63;100.00;98147.72;5043881;28;20017;-88
2021/11/18 02:13:08;;;;;;;83.47;37.72;;;;;;;3.59;100.00;98149.56;5043756;28;20035;-88
2021/11/18 02:15:37;;;;;;;83.43;38.20;;;;;;;3.69;100.00;98148.41;5042640;28;20087;-88
2021/11/18 02:18:21;;;;;;;76.70;34.10;;;;;;;3.43;100.00;98119.13;5042746;28;20039;-87
2021/11/18 02:20:48;;;;;;;69.40;31.55;;;;;;;3.67;100.00;98157.31;5036690;28;20073;-87
2021/11/18 02:23:23;;;;;;;63.00;30.38;;;;;;;3.56;100.00;98140.84;5020471;28;20025;-87
2021/11/18 02:25:51;;;;;;;69.30;33.35;;;;;;;3.60;100.00;98138.06;5021440;28;20128;-88
2021/11/18 02:31:43;;;;;;;77.57;32.15;;;;;;;3.52;100.00;98145.34;5041085;28;20056;-87
2021/11/18 02:34:14;;;;;;;75.60;34.00;;;;;;;3.58;100.00;98163.69;5019056;28;20138;-87
2021/11/18 02:36:41;;;;;;;77.73;34.67;;;;;;;3.55;100.00;98166.41;5035419;28;20021;-88
2021/11/18 02:39:08;;;;;;;75.90;33.00;;;;;;;3.37;100.00;98148.34;5038028;28;20029;-88
2021/11/18 02:41:35;;;;;;;70.50;33.55;;;;;;;3.35;100.00;98160.75;5036625;28;20065;-87
2021/11/18 02:44:08;;;;;;;73.20;34.05;;;;;;;3.26;100.00;98163.59;5036158;28;20029;-88
2021/11/18 02:46:35;;;;;;;76.53;31.52;;;;;;;3.24;100.00;98170.69;5035969;28;20025;-88
2021/11/18 02:49:01;;;;;;;70.68;32.85;;;;;;;2.97;100.00;98152.81;5029914;28;20416;-88
2021/11/18 02:51:29;;;;;;;83.45;36.05;;;;;;;3.02;100.00;98169.44;5019634;28;20033;-89
2021/11/18 02:53:55;;;;;;;80.75;36.40;;;;;;;2.83;100.00;98131.13;5035135;28;20045;-88
2021/11/18 02:56:21;;;;;;;82.32;40.08;;;;;;;3.00;100.00;98171.25;5020141;28;20041;-88
2021/11/18 02:58:47;;;;;;;75.10;36.58;;;;;;;2.86;100.00;98157.47;5019374;28;20030;-88
2021/11/18 03:01:38;;;;;;;82.70;35.20;;;;;;;2.89;100.00;98165.34;5019163;28;21432;-86
2021/11/18 03:04:03;;;;;;;80.72;34.70;;;;;;;2.68;100.00;98137.59;5012741;28;20045;-88
2021/11/18 03:06:29;;;;;;;69.20;33.35;;;;;;;2.74;100.00;98151.53;5020050;28;20389;-87
2021/11/18 03:08:55;;;;;;;78.43;34.88;;;;;;;2.68;100.00;98146.38;5020143;28;20071;-87
2021/11/18 03:11:23;;;;;;;77.97;35.95;;;;;;;2.80;100.00;98162.91;5021170;28;20097;-88
2021/11/18 03:13:49;;;;;;;77.70;35.67;;;;;;;2.73;100.00;98173.59;5020335;28;20571;-87
2021/11/18 03:16:16;;;;;;;83.20;36.08;;;;;;;2.72;100.00;98179.75;5019659;28;20558;-87
2021/11/18 03:18:42;;;;;;;72.28;34.67;;;;;;;2.66;100.00;98168.44;5020319;28;20409;-89
2021/11/18 03:21:11;;;;;;;73.57;35.50;;;;;;;2.70;100.00;98165.72;5037424;28;20049;-89
2021/11/18 03:23:37;;;;;;;81.63;38.05;;;;;;;2.82;100.00;98182.22;5036482;28;20021;-88
2021/11/18 03:26:03;;;;;;;96.57;41.92;;;;;;;2.67;100.00;98152.59;5035495;28;20104;-87
2021/11/18 03:28:33;;;;;;;92.80;39.45;;;;;;;2.70;100.00;98151.66;5019936;28;20493;-87
2021/11/18 03:31:01;;;;;;;99.70;39.72;;;;;;;2.87;100.00;98168.00;5020212;28;20527;-88
2021/11/18 03:33:30;;;;;;;94.72;39.58;;;;;;;2.80;100.00;98163.72;5036887;28;20035;-88
2021/11/18 03:35:56;;;;;;;88.28;37.72;;;;;;;2.87;100.00;98175.03;5021008;28;20033;-86
2021/11/18 03:38:24;;;;;;;90.72;38.45;;;;;;;2.69;100.00;98156.06;5020682;28;20087;-88
2021/11/18 03:40:50;;;;;;;89.45;37.85;;;;;;;2.84;100.00;98146.06;5019848;28;20112;-88
2021/11/18 03:43:18;;;;;;;92.50;37.30;;;;;;;2.97;100.00;98166.91;5036378;28;20029;-88
2021/11/18 03:45:44;;;;;;;85.63;38.70;;;;;;;3.04;100.00;98170.28;5035747;28;20136;-88
2021/11/18 03:48:15;;;;;;;86.05;38.80;;;;;;;2.96;100.00;98144.00;5034383;28;20033;-88
2021/11/18 03:50:41;;;;;;;86.25;36.88;;;;;;;3.16;100.00;98156.78;5035541;28;20044;-87
2021/11/18 03:53:07;;;;;;;91.80;37.22;;;;;;;3.07;100.00;98141.16;5019776;28;20095;-88
2021/11/18 03:55:33;;;;;;;96.65;40.03;;;;;;;3.20;100.00;98155.78;5038455;28;20033;-88
2021/11/18 03:57:58;;;;;;;102.07;40.35;;;;;;;3.23;100.00;98161.03;5035675;28;20029;-86
2021/11/18 04:00:30;;;;;;;92.40;40.40;;;;;;;3.31;100.00;98169.66;5019710;28;20485;-88
2021/11/18 04:02:57;;;;;;;95.37;39.20;;;;;;;3.30;100.00;98165.25;5037135;28;20017;-87
2021/11/18 04:05:23;;;;;;;84.75;38.05;;;;;;;3.36;100.00;98165.09;5036686;28;20029;-87
2021/11/18 04:07:49;;;;;;;92.05;39.10;;;;;;;3.35;100.00;98154.59;5020895;28;20120;-88
2021/11/18 04:10:18;;;;;;;81.13;37.60;;;;;;;3.49;100.00;98174.50;5020164;28;20060;-87
2021/11/18 04:12:44;;;;;;;92.63;40.30;;;;;;;3.57;100.00;98169.03;5037068;28;20044;-88
2021/11/18 04:15:11;;;;;;;93.38;41.78;;;;;;;3.64;100.00;98160.91;5035134;28;20409;-87
2021/11/18 04:17:37;;;;;;;99.70;42.60;;;;;;;3.55;100.00;98153.19;5036533;28;20125;-87
2021/11/18 04:20:04;;;;;;;93.00;43.50;;;;;;;3.64;100.00;98162.66;5019145;28;20076;-87
2021/11/18 04:22:30;;;;;;;94.10;43.28;;;;;;;3.55;100.00;98139.09;5055038;28;20044;-87
2021/11/18 04:24:56;;;;;;;93.10;42.22;;;;;;;3.58;100.00;98134.59;5038778;28;20033;-88
2021/11/18 04:27:22;;;;;;;83.97;41.42;;;;;;;3.66;100.00;98135.28;5039005;28;20029;-87
2021/11/18 04:29:47;;;;;;;73.53;34.42;;;;;;;3.65;100.00;98122.09;5039965;28;20035;-88
2021/11/18 04:32:17;;;;;;;72.88;33.92;;;;;;;3.84;100.00;98145.38;5040384;28;20033;-88
2021/11/18 04:34:43;;;;;;;65.63;31.45;;;;;;;3.89;100.00;98155.88;5055846;28;20049;-87
2021/11/18 04:37:09;;;;;;;62.30;30.55;;;;;;;3.84;100.00;98148.03;5041292;28;20036;-88
2021/11/18 04:39:35;;;;;;;71.45;32.92;;;;;;;3.82;100.00;98155.16;5041993;28;20033;-88
2021/11/18 04:42:02;;;;;;;65.97;33.15;;;;;;;3.80;100.00;98146.41;5039839;28;20059;-88
2021/11/18 04:44:27;;;;;;;71.20;32.85;;;;;;;3.84;100.00;98147.19;5038649;28;20562;-88
2021/11/18 04:46:53;;;;;;;65.65;30.90;;;;;;;3.86;100.00;98149.78;5038122;28;20037;-87
2021/11/18 04:49:21;;;;;;;65.40;32.50;;;;;;;3.94;100.00;98148.66;5054211;28;20556;-87
2021/11/18 04:51:47;;;;;;;71.70;30.98;;;;;;;4.05;100.00;98164.28;5039287;28;20040;-87
2021/11/18 04:54:16;;;;;;;69.18;33.15;;;;;;;4.12;100.00;98168.50;5038930;28;20082;-87
2021/11/18 04:56:42;;;;;;;83.05;36.13;;;;;;;4.08;100.00;98180.06;5036973;28;20032;-87
2021/11/18 04:59:09;;;;;;;103.18;46.72;;;;;;;3.90;100.00;98141.72;5054827;28;20086;-77
2021/11/18 05:01:35;;;;;;;118.28;53.38;;;;;;;4.01;100.00;98168.78;5035613;28;20037;-87
2021/11/18 05:04:02;;;;;;;138.20;60.80;;;;;;;3.97;100.00;98163.63;5027288;28;20035;-88
2021/11/18 05:06:28;;;;;;;125.47;59.75;;;;;;;4.18;100.00;98178.94;5039080;28;20178;-87
2021/11/18 05:08:53;;;;;;;115.05;51.55;;;;;;;4.07;100.00;98165.09;5053252;28;20033;-88
2021/11/18 05:11:19;;;;;;;126.15;53.75;;;;;;;4.05;100.00;98162.50;5038738;28;20040;-86
2021/11/18 05:13:45;;;;;;;105.47;47.28;;;;;;;4.04;100.00;98168.69;5039927;28;20059;-88
2021/11/18 05:16:14;;;;;;;95.97;43.80;;;;;;;4.21;100.00;98178.84;5039081;28;20496;-87
2021/11/18 05:18:40;;;;;;;96.22;42.53;;;;;;;4.26;100.00;98176.94;5039952;28;20033;-85
2021/11/18 05:21:08;;;;;;;91.78;41.72;;;;;;;4.34;100.00;98197.00;5040598;28;20111;-88
2021/11/18 05:23:34;;;;;;;120.13;45.15;;;;;;;4.31;100.00;98194.44;5042994;28;20029;-89
2021/11/18 05:26:00;;;;;;;121.28;46.30;;;;;;;4.35;100.00;98203.16;5050953;28;20036;-89
2021/11/18 05:28:27;;;;;;;99.70;42.30;;;;;;;4.41;100.00;98203.00;5052630;28;20025;-81
2021/11/18 05:30:56;;;;;;;108.43;41.30;;;;;;;4.47;100.00;98209.91;5040373;28;20104;-89
2021/11/18 05:33:28;;;;;;;100.15;41.08;;;;;;;4.47;100.00;98196.66;5038927;28;20040;-89
2021/11/18 05:35:55;;;;;;;87.85;39.45;;;;;;;4.45;100.00;98207.31;5029102;28;20029;-89
2021/11/18 05:38:22;;;;;;;76.13;37.63;;;;;;;4.57;100.00;98206.97;5030392;28;20059;-89
2021/11/18 05:40:51;;;;;;;87.68;40.70;;;;;;;4.54;100.00;98204.41;5051884;28;20033;-89
2021/11/18 05:43:26;;;;;;;87.03;39.47;;;;;;;4.41;100.00;98184.47;5053310;28;20024;-89
2021/11/18 05:45:52;;;;;;;80.72;35.67;;;;;;;4.26;100.00;98139.88;5033417;28;20025;-88
2021/11/18 05:48:19;;;;;;;87.50;38.25;;;;;;;4.41;100.00;98171.22;5051637;28;20110;-89
2021/11/18 05:50:50;;;;;;;96.85;46.63;;;;;;;4.40;100.00;98177.41;5050879;28;20028;-89
2021/11/18 05:53:19;;;;;;;94.20;42.50;;;;;;;4.53;100.00;98185.91;5051556;28;20055;-90
2021/11/18 05:55:46;;;;;;;89.45;41.17;;;;;;;4.50;100.00;98168.31;5030385;28;20037;-90
2021/11/18 05:58:13;;;;;;;89.40;40.97;;;;;;;4.56;100.00;98191.97;5035445;28;20055;-90
2021/11/18 06:00:42;;;;;;;80.68;40.65;;;;;;;4.65;100.00;98186.44;5018218;28;20029;-91
2021/11/18 06:03:24;;;;;;;105.85;45.67;;;;;;;4.72;100.00;98193.31;5034219;28;20041;-91
2021/11/18 06:05:50;;;;;;;125.88;53.20;;;;;;;4.75;100.00;98189.69;5036377;28;20029;-90
2021/11/18 06:12:10;;;;;;;;;;;;;;;;;;;;;
2021/11/18 06:14:44;;;;;;;163.30;76.22;;;;;;;4.40;100.00;98143.00;5028705;28;20049;-91
2021/11/18 06:17:10;;;;;;;171.50;74.28;;;;;;;4.87;100.00;98223.78;5020981;28;20029;-91
2021/11/18 06:19:43;;;;;;;171.50;79.13;;;;;;;4.57;100.00;98183.13;5037418;28;20029;-91
2021/11/18 06:22:09;;;;;;;196.57;93.97;;;;;;;4.41;100.00;98157.97;5033012;28;20049;-91
2021/11/18 06:24:35;;;;;;;194.98;91.90;;;;;;;4.93;100.00;98229.78;5031409;28;20041;-91
2021/11/18 06:27:03;;;;;;;215.98;108.38;;;;;;;4.83;100.00;98183.25;5031222;28;20089;-91
2021/11/18 06:29:30;;;;;;;208.77;100.88;;;;;;;5.09;100.00;98218.75;5047457;28;20029;-90
2021/11/18 06:32:01;;;;;;;151.55;73.28;;;;;;;5.26;100.00;98253.59;5027525;28;20029;-92
2021/11/18 06:34:27;;;;;;;154.32;72.55;;;;;;;5.28;100.00;98230.53;5057246;28;20100;-88
2021/11/18 06:36:53;;;;;;;132.77;63.00;;;;;;;5.45;100.00;98249.44;5056657;28;20094;-93
2021/11/18 06:39:22;;;;;;;114.25;52.20;;;;;;;5.49;100.00;98261.72;5057476;28;20067;-92
2021/11/18 06:41:48;;;;;;;104.97;45.80;;;;;;;5.47;100.00;98258.25;5054098;28;20026;-90
2021/11/18 06:44:15;;;;;;;112.82;45.10;;;;;;;5.33;100.00;98231.25;5055847;28;20089;-92
2021/11/18 06:46:42;;;;;;;112.38;48.40;;;;;;;5.22;100.00;98230.72;5056529;28;20028;-90
2021/11/18 06:49:09;;;;;;;144.32;60.08;;;;;;;5.37;100.00;98235.56;5056646;28;20167;-91
2021/11/18 06:51:40;;;;;;;149.10;66.47;;;;;;;5.37;100.00;98220.53;5059080;28;20030;-92
2021/11/18 06:54:06;;;;;;;143.82;61.38;;;;;;;5.50;100.00;98239.59;5023038;28;20119;-91
2021/11/18 06:56:35;;;;;;;132.65;60.35;;;;;;;5.25;100.00;98188.19;5057778;28;20033;-89
2021/11/18 06:59:02;;;;;;;139.15;63.50;;;;;;;5.52;100.00;98223.63;5037648;28;20025;-91
2021/11/18 07:01:28;;;;;;;181.25;80.15;;;;;;;5.72;100.00;98245.94;5022736;28;20112;-88
2021/11/18 07:03:54;;;;;;;140.90;65.75;;;;;;;5.56;100.00;98210.22;5053593;28;20044;-89
2021/11/18 07:06:38;;;;;;;123.10;55.60;;;;;;;5.75;100.00;98267.09;5059153;28;20420;-90
2021/11/18 07:09:07;;;;;;;126.05;55.90;;;;;;;5.41;100.00;98202.75;5054403;28;20033;-89
2021/11/18 07:11:34;;;;;;;111.78;53.20;;;;;;;5.87;100.00;98247.31;5056399;28;20033;-90
2021/11/18 07:14:00;;;;;;;131.10;52.90;;;;;;;5.91;100.00;98255.09;5054399;28;20029;-90
2021/11/18 07:19:10;;;;;;;130.65;59.42;;;;;;;5.88;100.00;98239.28;5039888;28;20476;-90
2021/11/18 07:21:36;;;;;;;153.65;68.85;;;;;;;5.79;100.00;98260.78;5065646;28;20057;-89
2021/11/18 07:24:02;;;;;;;158.02;76.70;;;;;;;5.87;100.00;98264.09;5059629;28;20028;-88
2021/11/18 07:26:35;;;;;;;183.35;86.38;;;;;;;5.93;100.00;98255.06;5054981;28;20036;-89
2021/11/18 07:29:01;;;;;;;150.48;73.45;;;;;;;6.05;100.00;98267.94;5048147;28;20068;-88
2021/11/18 07:31:27;;;;;;;149.95;77.20;;;;;;;6.02;100.00;98283.97;5050104;28;20072;-89
2021/11/18 07:33:53;;;;;;;162.50;76.43;;;;;;;5.96;100.00;98271.78;5056709;28;20025;-90
2021/11/18 07:36:21;;;;;;;157.60;79.10;;;;;;;6.13;100.00;98268.56;5038680;28;20039;-90
2021/11/18 07:38:50;;;;;;;178.32;89.45;;;;;;;6.09;100.00;98252.78;5056251;28;20029;-91
2021/11/18 07:41:17;;;;;;;164.85;87.53;;;;;;;6.30;100.00;98290.13;5039405;28;20040;-91
2021/11/18 07:43:52;;;;;;;162.80;81.10;;;;;;;6.33;100.00;98278.53;5056278;28;20036;-93
2021/11/18 07:46:19;;;;;;;153.30;72.40;;;;;;;6.05;100.00;98240.53;5040602;28;20033;-90
2021/11/18 07:48:47;;;;;;;148.55;73.00;;;;;;;5.95;100.00;98210.75;5057903;28;20476;-91
2021/11/18 07:51:14;;;;;;;158.95;74.85;;;;;;;6.39;100.00;98262.38;5039650;28;20021;-93
2021/11/18 07:53:41;;;;;;;150.30;74.28;;;;;;;6.75;100.00;98289.47;5041732;28;20036;-90
2021/11/18 07:56:23;;;;;;;139.02;70.85;;;;;;;6.27;100.00;98233.56;5065743;28;20412;-91
2021/11/18 07:58:49;;;;;;;151.23;67.78;;;;;;;6.53;100.00;98287.56;5039003;28;20044;-90
2021/11/18 08:01:16;;;;;;;139.18;63.50;;;;;;;6.45;100.00;98271.03;5047425;28;20036;-79
2021/11/18 08:03:41;;;;;;;132.50;59.80;;;;;;;6.38;100.00;98287.22;5013458;28;20528;-78
2021/11/18 08:06:10;;;;;;;120.18;54.20;;;;;;;6.41;100.00;98298.59;5046623;28;20127;-79
2021/11/18 08:08:44;;;;;;;101.63;52.38;;;;;;;6.49;100.00;98269.13;5035784;28;20512;-91
2021/11/18 08:11:16;;;;;;;114.55;48.60;;;;;;;6.55;100.00;98267.09;5054745;28;20033;-91
2021/11/18 08:13:42;;;;;;;110.07;52.30;;;;;;;6.84;100.00;98283.84;5039980;28;20076;-91
2021/11/18 08:16:25;;;;;;;108.80;53.22;;;;;;;6.50;100.00;98226.53;5040706;28;20029;-90
2021/11/18 08:18:51;;;;;;;94.28;45.25;;;;;;;6.68;100.00;98262.25;5025232;28;20057;-92
2021/11/18 08:21:17;;;;;;;110.18;46.55;;;;;;;6.56;100.00;98233.44;5040904;28;20060;-92
2021/11/18 08:23:44;;;;;;;86.63;43.88;;;;;;;6.49;100.00;98242.56;5041155;28;20017;-92
2021/11/18 08:29:44;;;;;;;96.85;49.08;;;;;;;6.97;100.00;98320.59;5057697;28;20048;-91
2021/11/18 08:32:10;;;;;;;118.38;53.90;;;;;;;6.78;100.00;98281.41;5039490;28;20484;-91
2021/11/18 08:34:36;;;;;;;108.00;54.75;;;;;;;6.81;100.00;98278.63;5039149;28;20024;-90
2021/11/18 08:37:03;;;;;;;115.00;53.13;;;;;;;6.92;100.00;98309.22;5036276;28;20108;-81
2021/11/18 08:39:30;;;;;;;88.25;42.92;;;;;;;6.85;100.00;98302.41;5059093;28;20498;-76
2021/11/18 08:42:04;;;;;;;99.55;47.20;;;;;;;7.00;100.00;98307.19;5049122;28;20036;-78
2021/11/18 08:44:33;;;;;;;98.45;45.35;;;;;;;7.07;100.00;98318.47;5033320;28;20028;-78
2021/11/18 08:46:59;;;;;;;83.10;40.78;;;;;;;6.86;100.00;98306.78;5033221;28;20491;-77
2021/11/18 08:49:25;;;;;;;86.90;40.97;;;;;;;6.91;100.00;98307.50;5049601;28;20029;-77
2021/11/18 08:51:53;;;;;;;78.00;33.55;;;;;;;7.14;100.00;98308.50;5031435;28;20029;-77
2021/11/18 08:54:23;;;;;;;64.57;30.77;;;;;;;7.38;100.00;98315.56;5050309;28;20035;-77
2021/11/18 08:56:51;;;;;;;75.72;36.35;;;;;;;7.01;100.00;98319.53;5044937;28;20040;-77
2021/11/18 09:06:15;;;;;;;;;;;;;;;;;;;;;
2021/11/18 09:08:42;;;;;;;132.93;63.97;;;;;;;7.37;100.00;98319.16;5061790;28;20100;-91
2021/11/18 09:11:13;;;;;;;116.43;59.47;;;;;;;7.02;100.00;98259.25;5043472;28;20066;-92
2021/11/18 09:13:41;;;;;;;107.07;56.17;;;;;;;7.35;100.00;98321.00;5038698;28;20031;-90
2021/11/18 09:16:13;;;;;;;111.00;56.17;;;;;;;6.97;100.00;98235.50;5058501;28;20102;-92
2021/11/18 09:18:42;;;;;;;75.20;39.25;;;;;;;7.17;100.00;98293.25;5058692;28;20029;-92
2021/11/18 09:21:11;;;;;;;69.07;36.03;;;;;;;7.40;100.00;98287.09;5061572;28;20048;-90
2021/11/18 09:23:51;;;;;;;63.40;25.20;;;;;;;7.16;99.14;98283.56;5041378;28;20476;-90
2021/11/18 09:26:23;;;;;;;51.28;26.23;;;;;;;6.86;100.00;98297.97;5041153;28;20091;-92
2021/11/18 09:28:48;;;;;;;;;;;;;;;7.35;100.00;98331.66;5042271;28;20037;-91
2021/11/18 09:31:17;;;;;;;54.38;26.52;;;;;;;7.25;100.00;98303.63;5040550;28;19920;-90
2021/11/18 09:33:46;;;;;;;74.35;33.03;;;;;;;6.76;100.00;98257.53;5041235;28;20033;-91
2021/11/18 09:36:13;;;;;;;64.13;32.38;;;;;;;6.52;100.00;98287.63;5057301;28;20044;-90
2021/11/18 09:38:42;;;;;;;64.97;30.63;;;;;;;6.43;100.00;98285.25;5029732;28;20028;-91
2021/11/18 09:41:18;;;;;;;70.15;34.85;;;;;;;6.17;100.00;98246.28;5040277;28;20034;-90
2021/11/18 09:44:09;;;;;;;72.40;36.13;;;;;;;7.13;100.00;98328.91;5055665;28;20025;-88
2021/11/18 09:47:12;;;;;;;74.55;37.05;;;;;;;7.31;100.00;98324.69;5056178;28;20048;-91
2021/11/18 09:50:11;;;;;;;74.60;36.05;;;;;;;7.50;100.00;98323.09;5056069;28;20035;-89
2021/11/18 09:56:12;;;;;;;103.97;49.28;;;;;;;7.63;100.00;98298.59;5058734;28;20471;-90
2021/11/18 09:58:46;;;;;;;84.40;43.65;;;;;;;7.50;100.00;98286.72;5040611;28;20025;-90
2021/11/18 10:01:52;;;;;;;95.93;46.58;;;;;;;7.69;100.00;98262.03;5039388;28;20451;-90
2021/11/18 10:04:44;;;;;;;84.78;44.35;;;;;;;7.90;100.00;98304.69;5056998;28;20112;-89
2021/11/18 10:07:17;;;;;;;99.50;46.95;;;;;;;8.09;99.77;98303.00;5048577;28;20025;-75
2021/11/18 10:10:04;;;;;;;93.80;46.65;;;;;;;7.99;99.31;98299.00;5048721;28;20037;-75
2021/11/18 10:12:48;;;;;;;93.35;44.78;;;;;;;8.11;98.82;98298.50;5048893;28;20029;-76
2021/11/18 10:15:19;;;;;;;97.40;49.63;;;;;;;7.76;100.00;98296.34;5048548;28;20067;-75
2021/11/18 10:17:58;;;;;;;97.05;48.20;;;;;;;7.78;100.00;98275.00;5032032;28;20566;-76
2021/11/18 10:20:36;;;;;;;132.18;68.60;;;;;;;8.17;99.67;98298.25;5031726;28;20508;-77
2021/11/18 10:23:12;;;;;;;103.25;52.28;;;;;;;7.85;100.00;98292.44;5031187;28;20099;-77
2021/11/18 10:26:09;;;;;;;86.05;41.72;;;;;;;7.85;100.00;98281.78;5034609;28;20036;-77
2021/11/18 10:28:40;;;;;;;73.07;37.38;;;;;;;7.83;100.00;98286.31;5051459;28;20024;-76
2021/11/18 10:31:26;;;;;;;80.35;40.72;;;;;;;7.84;100.00;98275.63;5032083;28;20028;-75
2021/11/18 10:34:12;;;;;;;77.65;36.63;;;;;;;8.05;100.00;98282.75;5053251;28;20377;-76
2021/11/18 10:36:50;;;;;;;73.00;31.75;;;;;;;7.99;100.00;98283.00;5037111;28;20020;-77
2021/11/18 10:39:56;;;;;;;57.35;28.80;;;;;;;8.12;100.00;98289.56;5052427;28;20487;-76
2021/11/18 10:42:28;;;;;;;61.95;30.58;;;;;;;8.24;100.00;98282.00;5031310;28;20032;-77
2021/11/18 10:44:53;;;;;;;68.78;32.55;;;;;;;8.54;97.93;98286.97;5037479;28;20503;-76
2021/11/18 10:47:25;;;;;;;63.15;31.40;;;;;;;8.38;97.19;98277.00;5054612;28;20028;-77
2021/11/18 10:50:26;;;;;;;68.87;34.53;;;;;;;8.45;97.50;98282.03;5070281;28;20074;-76
2021/11/18 10:53:18;;;;;;;105.90;57.05;;;;;;;8.42;97.97;98286.63;5015994;28;20295;-76
2021/11/18 10:55:48;;;;;;;130.68;70.85;;;;;;;8.34;96.16;98275.38;5045849;28;20227;-76
2021/11/18 10:58:35;;;;;;;81.97;39.15;;;;;;;8.45;96.34;98281.16;5046621;28;20069;-76
2021/11/18 11:01:12;;;;;;;91.03;42.75;;;;;;;8.58;95.04;98274.41;5035821;28;20377;-77
2021/11/18 11:03:39;;;;;;;91.45;43.03;;;;;;;8.47;96.11;98274.81;5031254;28;20031;-76
2021/11/18 11:06:17;;;;;;;88.18;42.42;;;;;;;8.65;95.82;98273.19;5063565;28;20045;-77
2021/11/18 11:08:54;;;;;;;106.75;53.90;;;;;;;9.07;94.29;98260.66;5036743;28;20209;-77
2021/11/18 11:11:50;;;;;;;88.20;43.00;;;;;;;9.23;92.07;98256.34;5036505;28;20405;-75
2021/11/18 11:14:49;;;;;;;86.18;44.10;;;;;;;9.23;91.79;98256.34;5070919;28;20032;-75
2021/11/18 11:17:39;;;;;;;106.10;49.63;;;;;;;9.48;90.07;98255.22;5053096;28;20056;-77
2021/11/18 11:20:08;;;;;;;90.70;46.05;;;;;;;9.62;88.24;98247.44;5062674;28;20036;-76
2021/11/18 11:22:49;;;;;;;86.28;44.58;;;;;;;9.34;91.03;98242.53;5047546;28;20042;-76
2021/11/18 11:25:50;;;;;;;84.75;45.17;;;;;;;9.79;88.12;98250.19;5036239;28;20063;-76
2021/11/18 11:28:34;;;;;;;80.03;42.35;;;;;;;10.53;83.42;98254.56;5035921;28;20085;-78
2021/11/18 11:31:05;;;;;;;101.57;52.17;;;;;;;10.93;80.90;98258.72;5070978;28;20032;-77
2021/11/18 11:33:54;;;;;;;121.77;61.60;;;;;;;10.58;81.77;98251.66;5069853;28;21507;-77
2021/11/18 11:36:24;;;;;;;124.57;65.13;;;;;;;10.63;82.63;98257.63;5052389;28;20119;-76
2021/11/18 11:38:52;;;;;;;121.55;62.53;;;;;;;10.45;82.09;98255.91;5036240;28;20036;-77
2021/11/18 11:41:39;;;;;;;96.45;51.10;;;;;;;9.89;85.68;98263.97;5046722;28;20103;-77
2021/11/18 11:44:14;;;;;;;94.40;50.63;;;;;;;9.87;85.73;98258.72;5052510;28;20055;-76
2021/11/18 11:46:57;;;;;;;81.57;44.53;;;;;;;9.96;86.13;98246.72;5070674;28;20032;-76
2021/11/18 11:49:32;;;;;;;73.80;40.20;;;;;;;9.95;85.28;98255.66;5035889;28;20462;-76
2021/11/18 11:52:19;;;;;;;63.97;35.63;;;;;;;9.68;86.83;98252.50;5052904;28;20090;-75
2021/11/18 11:55:19;;;;;;;72.53;37.60;;;;;;;9.50;88.71;98248.91;5052394;28;20403;-76
2021/11/18 11:57:56;;;;;;;75.90;36.85;;;;;;;9.64;88.20;98253.56;5070434;28;20021;-76